createdAt,value
2022-08-30T00:00:43.687Z,3.22
2022-08-30T00:02:45.587Z,2.90
2022-08-30T00:04:47.866Z,3.10
2022-08-30T00:06:49.651Z,3.50
2022-08-30T00:08:52.847Z,2.60
2022-08-30T00:10:55.013Z,2.97
2022-08-30T00:12:58.023Z,3.28
2022-08-30T00:14:59.706Z,3.42
2022-08-30T00:17:01.585Z,3.28
2022-08-30T00:19:03.685Z,3.33
2022-08-30T00:21:06.748Z,3.28
2022-08-30T00:23:08.372Z,2.85
2022-08-30T00:25:10.766Z,3.33
2022-08-30T00:27:12.349Z,2.90
2022-08-30T00:29:14.040Z,2.95
2022-08-30T00:31:15.793Z,3.28
2022-08-30T00:33:17.803Z,3.08
2022-08-30T00:35:20.692Z,3.45
2022-08-30T00:37:22.769Z,2.80
2022-08-30T00:39:24.383Z,3.03
2022-08-30T00:41:26.084Z,2.92
2022-08-30T00:43:30.914Z,3.10
2022-08-30T00:45:35.706Z,2.80
2022-08-30T00:47:40.771Z,2.95
2022-08-30T00:49:46.672Z,3.20
2022-08-30T00:51:48.582Z,3.08
2022-08-30T00:53:55.334Z,2.78
2022-08-30T00:55:59.326Z,3.30
2022-08-30T00:58:05.314Z,3.20
2022-08-30T01:00:11.111Z,3.15
2022-08-30T01:02:17.786Z,2.90
2022-08-30T01:04:22.118Z,2.97
2022-08-30T01:06:23.636Z,3.33
2022-08-30T01:08:27.610Z,2.95
2022-08-30T01:10:29.242Z,2.95
2022-08-30T01:12:31.207Z,3.13
2022-08-30T01:14:33.577Z,3.15
2022-08-30T01:16:37.865Z,3.13
2022-08-30T01:18:40.359Z,3.03
2022-08-30T01:20:49.660Z,3.05
2022-08-30T01:22:51.183Z,2.95
2022-08-30T01:24:55.934Z,3.00
2022-08-30T01:26:58.544Z,2.85
2022-08-30T01:29:04.664Z,3.00
2022-08-30T01:31:06.538Z,3.20
2022-08-30T01:33:10.131Z,3.20
2022-08-30T01:35:17.819Z,3.10
2022-08-30T01:37:23.839Z,3.08
2022-08-30T01:39:26.366Z,3.15
2022-08-30T01:41:34.973Z,3.10
2022-08-30T01:43:36.838Z,3.00
2022-08-30T01:45:39.370Z,3.15
2022-08-30T01:47:42.408Z,3.10
2022-08-30T01:49:45.750Z,3.05
2022-08-30T01:51:47.611Z,3.22
2022-08-30T01:53:50.758Z,3.15
2022-08-30T01:55:52.520Z,3.65
2022-08-30T01:57:54.319Z,3.67
2022-08-30T01:59:56.022Z,3.17
2022-08-30T02:01:57.788Z,3.35
2022-08-30T02:04:00.081Z,3.22
2022-08-30T02:06:04.496Z,3.17
2022-08-30T02:08:06.110Z,3.10
2022-08-30T02:10:08.695Z,3.20
2022-08-30T02:12:10.440Z,3.67
2022-08-30T02:14:12.061Z,3.33
2022-08-30T02:16:17.619Z,3.33
2022-08-30T02:18:19.173Z,3.42
2022-08-30T02:20:20.983Z,2.80
2022-08-30T02:22:22.493Z,3.00
2022-08-30T02:24:24.207Z,2.97
2022-08-30T02:26:26.512Z,2.78
2022-08-30T02:28:28.288Z,3.25
2022-08-30T02:30:29.938Z,2.83
2022-08-30T02:32:31.732Z,3.50
2022-08-30T02:34:33.428Z,3.10
2022-08-30T02:36:35.104Z,3.00
2022-08-30T02:38:37.018Z,3.20
2022-08-30T02:40:39.084Z,3.13
2022-08-30T02:42:41.821Z,3.55
2022-08-30T02:44:43.466Z,2.88
2022-08-30T02:46:45.867Z,3.22
2022-08-30T02:48:47.409Z,2.90
2022-08-30T02:50:52.550Z,3.10
2022-08-30T02:52:55.543Z,3.20
2022-08-30T02:54:57.200Z,3.40
2022-08-30T02:56:59.066Z,2.78
2022-08-30T02:59:00.762Z,3.13
2022-08-30T03:01:03.557Z,3.20
2022-08-30T03:03:06.024Z,2.97
2022-08-30T03:05:09.176Z,3.08
2022-08-30T03:07:12.497Z,2.85
2022-08-30T03:09:14.295Z,3.10
2022-08-30T03:11:16.179Z,3.00
2022-08-30T03:13:18.007Z,2.90
2022-08-30T03:15:20.956Z,2.85
2022-08-30T03:17:23.128Z,3.28
2022-08-30T03:19:25.974Z,3.08
2022-08-30T03:21:27.655Z,2.83
2022-08-30T03:23:29.296Z,3.15
2022-08-30T03:25:31.249Z,3.05
2022-08-30T03:27:32.852Z,2.97
2022-08-30T03:29:35.295Z,2.97
2022-08-30T03:31:37.874Z,2.90
2022-08-30T03:33:53.951Z,2.95
2022-08-30T03:35:55.834Z,2.80
2022-08-30T03:37:59.025Z,2.90
2022-08-30T03:40:01.306Z,2.83
2022-08-30T03:42:04.002Z,2.88
2022-08-30T03:44:05.661Z,3.10
2022-08-30T03:46:08.010Z,2.92
2022-08-30T03:48:11.285Z,2.88
2022-08-30T03:50:14.499Z,2.70
2022-08-30T03:52:16.067Z,3.22
2022-08-30T03:54:18.313Z,2.97
2022-08-30T03:56:20.105Z,2.90
2022-08-30T03:58:22.562Z,3.13
2022-08-30T04:00:24.288Z,2.88
2022-08-30T04:02:26.721Z,2.95
2022-08-30T04:04:28.349Z,2.88
2022-08-30T04:06:30.040Z,3.35
2022-08-30T04:08:31.667Z,2.90
2022-08-30T04:10:34.015Z,2.97
2022-08-30T04:12:37.936Z,2.90
2022-08-30T04:14:40.181Z,2.85
2022-08-30T04:16:43.695Z,2.95
2022-08-30T04:18:45.457Z,2.78
2022-08-30T04:20:47.585Z,2.80
2022-08-30T04:22:49.206Z,2.80
2022-08-30T04:24:50.792Z,2.70
2022-08-30T04:26:52.567Z,2.95
2022-08-30T04:28:55.936Z,2.72
2022-08-30T04:30:57.767Z,2.50
2022-08-30T04:32:59.901Z,2.60
2022-08-30T04:35:02.197Z,2.33
2022-08-30T04:37:04.091Z,2.40
2022-08-30T04:39:06.836Z,2.50
2022-08-30T04:41:17.632Z,2.80
2022-08-30T04:43:19.300Z,2.60
2022-08-30T04:45:21.784Z,2.83
2022-08-30T04:47:23.418Z,2.65
2022-08-30T04:49:24.938Z,3.00
2022-08-30T04:51:26.644Z,2.53
2022-08-30T04:53:28.478Z,2.63
2022-08-30T04:55:33.092Z,2.90
2022-08-30T04:57:34.838Z,2.75
2022-08-30T04:59:38.806Z,2.70
2022-08-30T05:01:44.690Z,2.65
2022-08-30T05:03:48.677Z,3.30
2022-08-30T05:05:50.874Z,3.45
2022-08-30T05:07:52.488Z,3.35
2022-08-30T05:09:54.125Z,2.90
2022-08-30T05:11:58.511Z,3.20
2022-08-30T05:14:00.671Z,2.80
2022-08-30T05:16:04.221Z,3.00
2022-08-30T05:18:07.676Z,2.88
2022-08-30T05:20:11.551Z,3.05
2022-08-30T05:22:13.185Z,2.78
2022-08-30T05:24:14.697Z,3.10
2022-08-30T05:26:19.064Z,3.30
2022-08-30T05:28:25.969Z,3.20
2022-08-30T05:30:28.401Z,3.92
2022-08-30T05:32:30.642Z,3.67
2022-08-30T05:34:33.612Z,3.55
2022-08-30T05:36:37.106Z,3.28
2022-08-30T05:38:39.346Z,3.33
2022-08-30T05:40:42.512Z,3.10
2022-08-30T05:42:46.123Z,3.60
2022-08-30T05:44:52.532Z,3.45
2022-08-30T05:46:54.030Z,3.45
2022-08-30T05:48:57.077Z,3.63
2022-08-30T05:51:21.040Z,3.42
2022-08-30T05:53:22.728Z,3.22
2022-08-30T05:55:24.865Z,2.85
2022-08-30T05:57:26.920Z,3.47
2022-08-30T05:59:28.800Z,3.67
2022-08-30T06:01:33.868Z,3.88
2022-08-30T06:03:35.548Z,3.70
2022-08-30T06:05:37.513Z,3.30
2022-08-30T06:07:39.899Z,3.58
2022-08-30T06:09:41.493Z,3.60
2022-08-30T06:11:44.514Z,3.53
2022-08-30T06:13:47.915Z,3.65
2022-08-30T06:15:51.069Z,3.53
2022-08-30T06:17:52.804Z,3.38
2022-08-30T06:19:54.591Z,3.35
2022-08-30T06:21:56.192Z,3.40
2022-08-30T06:23:58.830Z,3.70
2022-08-30T06:26:06.091Z,3.28
2022-08-30T06:28:07.777Z,3.60
2022-08-30T06:30:10.970Z,3.40
2022-08-30T06:32:12.563Z,3.45
2022-08-30T06:34:16.845Z,3.60
2022-08-30T06:36:23.973Z,2.97
2022-08-30T06:38:25.558Z,3.35
2022-08-30T06:40:27.139Z,3.22
2022-08-30T06:42:32.185Z,2.92
2022-08-30T06:44:34.449Z,3.00
2022-08-30T06:46:39.075Z,3.38
2022-08-30T06:48:43.028Z,2.88
2022-08-30T06:50:53.378Z,2.90
2022-08-30T06:52:54.905Z,2.97
2022-08-30T06:54:59.070Z,3.28
2022-08-30T06:57:00.679Z,3.85
2022-08-30T06:59:03.541Z,2.88
2022-08-30T07:01:12.887Z,3.15
2022-08-30T07:03:15.495Z,3.20
2022-08-30T07:05:18.943Z,3.63
2022-08-30T07:07:20.900Z,3.28
2022-08-30T07:09:22.843Z,3.08
2022-08-30T07:11:30.186Z,2.88
2022-08-30T07:13:32.477Z,3.00
2022-08-30T07:15:38.081Z,3.10
2022-08-30T07:17:58.459Z,3.15
2022-08-30T07:20:00.215Z,2.92
2022-08-30T07:22:01.751Z,3.25
2022-08-30T07:24:05.197Z,2.97
2022-08-30T07:26:13.653Z,3.15
2022-08-30T07:28:18.068Z,2.95
2022-08-30T07:30:19.928Z,3.35
2022-08-30T07:32:21.549Z,3.38
2022-08-30T07:34:29.075Z,3.00
2022-08-30T07:36:30.933Z,3.10
2022-08-30T07:38:33.854Z,3.10
2022-08-30T07:40:38.114Z,3.20
2022-08-30T07:42:40.973Z,3.65
2022-08-30T07:44:42.860Z,3.13
2022-08-30T07:46:47.690Z,3.00
2022-08-30T07:48:51.813Z,3.30
2022-08-30T07:50:57.165Z,3.00
2022-08-30T07:53:10.733Z,3.40
2022-08-30T07:55:12.988Z,3.10
2022-08-30T07:57:16.779Z,2.90
2022-08-30T07:59:18.581Z,3.00
2022-08-30T08:01:23.585Z,3.10
2022-08-30T08:03:26.569Z,2.83
2022-08-30T08:05:28.218Z,3.22
2022-08-30T08:07:39.954Z,3.00
2022-08-30T08:09:41.818Z,2.88
2022-08-30T08:11:43.710Z,3.08
2022-08-30T08:13:53.661Z,3.38
2022-08-30T08:15:56.201Z,2.80
2022-08-30T08:17:57.991Z,2.75
2022-08-30T08:19:59.816Z,2.80
2022-08-30T08:22:19.980Z,3.10
2022-08-30T08:24:27.046Z,3.25
2022-08-30T08:26:29.022Z,2.85
2022-08-30T08:28:30.854Z,3.08
2022-08-30T08:30:36.117Z,3.28
2022-08-30T08:32:37.843Z,3.08
2022-08-30T08:34:39.846Z,3.00
2022-08-30T08:36:41.656Z,3.53
2022-08-30T08:38:45.084Z,2.97
2022-08-30T08:41:03.469Z,3.17
2022-08-30T08:43:12.130Z,3.30
2022-08-30T08:45:19.637Z,3.20
2022-08-30T08:47:50.723Z,2.90
2022-08-30T08:49:58.128Z,3.40
2022-08-30T08:52:18.219Z,3.25
2022-08-30T08:54:58.992Z,3.22
2022-08-30T08:57:01.072Z,3.22
2022-08-30T08:59:02.721Z,3.15
2022-08-30T09:01:05.325Z,3.25
2022-08-30T09:03:13.473Z,3.03
2022-08-30T09:05:21.106Z,2.97
2022-08-30T09:07:26.065Z,3.35
2022-08-30T09:09:34.251Z,2.97
2022-08-30T09:11:37.714Z,3.28
2022-08-30T09:13:39.383Z,3.00
2022-08-30T09:15:43.105Z,2.83
2022-08-30T09:17:53.499Z,3.03
2022-08-30T09:19:55.209Z,3.28
2022-08-30T09:22:21.820Z,2.90
2022-08-30T09:24:26.203Z,2.95
2022-08-30T09:26:35.312Z,3.20
2022-08-30T09:28:51.059Z,3.03
2022-08-30T09:31:18.396Z,3.30
2022-08-30T09:33:20.698Z,3.22
2022-08-30T09:35:37.818Z,3.13
2022-08-30T09:37:47.669Z,3.28
2022-08-30T09:39:49.422Z,3.13
2022-08-30T09:41:51.300Z,3.13
2022-08-30T09:44:30.648Z,3.75
2022-08-30T09:46:32.298Z,3.47
2022-08-30T09:48:40.848Z,2.92
2022-08-30T09:50:43.204Z,3.42
2022-08-30T09:53:09.768Z,3.88
2022-08-30T09:55:33.191Z,3.50
2022-08-30T09:57:45.939Z,3.97
2022-08-30T10:00:09.892Z,4.05
2022-08-30T10:02:40.116Z,4.15
2022-08-30T10:04:53.561Z,4.10
2022-08-30T10:07:12.909Z,5.00
2022-08-30T10:09:44.557Z,4.20
2022-08-30T10:11:59.726Z,4.18
2022-08-30T10:14:15.899Z,4.03
2022-08-30T10:16:26.389Z,3.08
2022-08-30T10:19:13.877Z,3.83
2022-08-30T10:21:41.650Z,3.80
2022-08-30T10:23:58.478Z,3.55
2022-08-30T10:26:19.482Z,3.33
2022-08-30T10:28:33.359Z,3.08
2022-08-30T10:30:39.944Z,3.50
2022-08-30T10:32:59.639Z,3.40
2022-08-30T10:35:23.120Z,3.50
2022-08-30T10:37:28.656Z,3.42
2022-08-30T10:39:37.603Z,3.22
2022-08-30T10:41:54.679Z,2.83
2022-08-30T10:44:18.884Z,3.03
2022-08-30T10:46:35.187Z,2.75
2022-08-30T10:48:41.118Z,3.70
2022-08-30T10:50:52.264Z,3.05
2022-08-30T10:53:03.371Z,3.53
2022-08-30T10:55:15.798Z,3.58
2022-08-30T10:57:18.736Z,3.75
2022-08-30T10:59:20.766Z,3.25
2022-08-30T11:01:52.889Z,3.80
2022-08-30T11:04:29.341Z,3.80
2022-08-30T11:06:35.911Z,3.47
2022-08-30T11:09:04.581Z,3.53
2022-08-30T11:11:26.142Z,3.15
2022-08-30T11:13:31.751Z,2.92
2022-08-30T11:15:53.934Z,3.60
2022-08-30T11:18:09.978Z,3.08
2022-08-30T11:20:31.369Z,3.33
2022-08-30T11:22:39.254Z,2.97
2022-08-30T11:25:02.802Z,2.95
2022-08-30T11:27:44.011Z,2.75
2022-08-30T11:29:47.556Z,3.08
2022-08-30T11:31:49.639Z,3.22
2022-08-30T11:33:57.560Z,2.83
2022-08-30T11:36:00.500Z,3.10
2022-08-30T11:38:31.185Z,2.88
2022-08-30T11:40:56.222Z,2.97
2022-08-30T11:43:37.070Z,2.80
2022-08-30T11:45:47.215Z,3.00
2022-08-30T11:48:07.445Z,3.13
2022-08-30T11:50:22.377Z,2.70
2022-08-30T11:52:50.060Z,3.13
2022-08-30T11:54:57.782Z,2.92
2022-08-30T11:57:41.361Z,3.08
2022-08-30T12:00:04.617Z,2.65
2022-08-30T12:02:34.113Z,3.13
2022-08-30T12:04:47.338Z,2.72
2022-08-30T12:06:53.812Z,3.00
2022-08-30T12:09:02.267Z,2.90
2022-08-30T12:11:31.416Z,2.92
2022-08-30T12:13:38.949Z,2.78
2022-08-30T12:15:58.674Z,2.70
2022-08-30T12:18:18.791Z,3.00
2022-08-30T12:20:31.042Z,2.97
2022-08-30T12:22:38.814Z,2.60
2022-08-30T12:24:46.442Z,2.90
2022-08-30T12:26:50.158Z,2.80
2022-08-30T12:29:24.646Z,3.22
2022-08-30T12:31:33.104Z,3.40
2022-08-30T12:33:41.667Z,2.65
2022-08-30T12:35:44.524Z,3.08
2022-08-30T12:37:56.573Z,2.53
2022-08-30T12:40:20.912Z,2.97
2022-08-30T12:42:32.055Z,2.50
2022-08-30T12:44:34.021Z,3.10
2022-08-30T12:46:35.928Z,2.90
2022-08-30T12:48:41.108Z,2.90
2022-08-30T12:50:56.789Z,2.58
2022-08-30T12:53:13.035Z,2.92
2022-08-30T12:55:24.007Z,2.53
2022-08-30T12:57:40.164Z,2.70
2022-08-30T12:59:52.922Z,2.42
2022-08-30T13:02:20.303Z,3.10
2022-08-30T13:04:29.217Z,3.22
2022-08-30T13:07:01.179Z,2.85
2022-08-30T13:09:02.897Z,2.45
2022-08-30T13:11:30.876Z,2.70
2022-08-30T13:13:44.840Z,2.85
2022-08-30T13:15:49.181Z,2.53
2022-08-30T13:18:12.410Z,2.72
2022-08-30T13:20:14.743Z,2.35
2022-08-30T13:22:28.583Z,2.70
2022-08-30T13:24:30.332Z,2.40
2022-08-30T13:26:42.267Z,2.40
2022-08-30T13:28:57.854Z,2.30
2022-08-30T13:31:00.392Z,2.38
2022-08-30T13:33:07.466Z,2.30
2022-08-30T13:35:10.612Z,2.50
2022-08-30T13:39:40.836Z,2.58
2022-08-30T13:41:43.527Z,2.40
2022-08-30T13:46:12.408Z,2.13
2022-08-30T13:48:15.964Z,2.25
2022-08-30T13:50:20.928Z,2.33
2022-08-30T13:52:24.532Z,2.60
2022-08-30T13:54:27.617Z,2.53
2022-08-30T13:56:32.145Z,2.38
2022-08-30T13:58:33.780Z,2.42
2022-08-30T14:00:37.803Z,2.70
2022-08-30T14:02:46.367Z,3.00
2022-08-30T14:04:49.213Z,2.63
2022-08-30T14:09:14.431Z,2.40
2022-08-30T14:11:22.542Z,2.60
2022-08-30T14:13:28.855Z,2.63
2022-08-30T14:15:33.057Z,2.42
2022-08-30T14:17:35.836Z,2.78
2022-08-30T14:19:39.176Z,2.40
2022-08-30T14:21:41.310Z,2.60
2022-08-30T14:23:42.846Z,2.40
2022-08-30T14:25:44.561Z,2.60
2022-08-30T14:27:46.765Z,2.40
2022-08-30T14:29:49.451Z,2.50
2022-08-30T14:31:51.111Z,2.35
2022-08-30T14:33:55.790Z,2.50
2022-08-30T14:35:57.524Z,2.38
2022-08-30T14:37:59.329Z,2.22
2022-08-30T14:40:00.961Z,2.58
2022-08-30T14:42:07.608Z,2.45
2022-08-30T14:44:15.224Z,2.58
2022-08-30T14:46:17.370Z,2.50
2022-08-30T14:48:19.357Z,2.58
2022-08-30T14:50:21.692Z,3.03
2022-08-30T14:52:23.193Z,2.78
2022-08-30T14:54:28.093Z,2.50
2022-08-30T14:56:32.235Z,2.75
2022-08-30T14:58:36.641Z,2.85
2022-08-30T15:00:38.816Z,2.78
2022-08-30T15:02:40.703Z,2.50
2022-08-30T15:04:42.567Z,3.15
2022-08-30T15:06:47.755Z,3.05
2022-08-30T15:08:49.427Z,2.83
2022-08-30T15:10:51.139Z,2.92
2022-08-30T15:12:53.797Z,3.17
2022-08-30T15:14:55.679Z,2.85
2022-08-30T15:16:59.274Z,2.83
2022-08-30T15:19:03.070Z,2.90
2022-08-30T15:21:05.610Z,2.90
2022-08-30T15:23:07.944Z,2.75
2022-08-30T15:25:09.962Z,2.90
2022-08-30T15:27:11.734Z,2.80
2022-08-30T15:29:16.120Z,2.70
2022-08-30T15:31:23.422Z,2.65
2022-08-30T15:33:25.478Z,2.90
2022-08-30T15:35:28.738Z,3.00
2022-08-30T15:37:30.483Z,2.55
2022-08-30T15:39:32.565Z,2.55
2022-08-30T15:41:36.074Z,2.85
2022-08-30T15:43:41.144Z,2.88
2022-08-30T15:45:43.050Z,2.97
2022-08-30T15:47:44.965Z,2.60
2022-08-30T15:49:46.462Z,2.70
2022-08-30T15:51:51.463Z,2.58
2022-08-30T15:53:55.481Z,2.60
2022-08-30T15:55:57.289Z,2.83
2022-08-30T15:57:59.213Z,2.70
2022-08-30T16:00:02.896Z,2.60
2022-08-30T16:02:13.173Z,3.05
2022-08-30T16:04:17.161Z,2.97
2022-08-30T16:06:26.924Z,2.50
2022-08-30T16:08:29.745Z,2.60
2022-08-30T16:10:31.378Z,2.63
2022-08-30T16:12:33.634Z,2.83
2022-08-30T16:14:38.213Z,2.88
2022-08-30T16:16:41.152Z,2.63
2022-08-30T16:18:42.927Z,2.63
2022-08-30T16:20:45.003Z,3.05
2022-08-30T16:22:49.758Z,3.15
2022-08-30T16:24:51.447Z,3.05
2022-08-30T16:26:53.528Z,2.75
2022-08-30T16:28:55.693Z,2.80
2022-08-30T16:30:58.289Z,2.63
2022-08-30T16:32:59.903Z,2.90
2022-08-30T16:35:01.582Z,2.85
2022-08-30T16:37:03.555Z,2.67
2022-08-30T16:39:10.235Z,2.58
2022-08-30T16:41:20.601Z,3.10
2022-08-30T16:43:23.955Z,2.35
2022-08-30T16:45:28.593Z,2.45
2022-08-30T16:47:32.955Z,2.50
2022-08-30T16:49:37.101Z,2.97
2022-08-30T16:51:39.072Z,2.63
2022-08-30T16:53:41.368Z,2.80
2022-08-30T16:55:45.061Z,2.80
2022-08-30T16:57:46.887Z,2.50
2022-08-30T16:59:50.797Z,2.70
2022-08-30T17:01:54.158Z,2.60
2022-08-30T17:03:56.021Z,2.55
2022-08-30T17:05:58.134Z,2.80
2022-08-30T17:07:59.779Z,2.70
2022-08-30T17:10:05.419Z,2.95
2022-08-30T17:12:07.608Z,2.78
2022-08-30T17:14:09.731Z,2.80
2022-08-30T17:16:11.706Z,2.95
2022-08-30T17:18:14.704Z,3.10
2022-08-30T17:20:16.599Z,2.63
2022-08-30T17:22:18.180Z,3.03
2022-08-30T17:24:23.043Z,3.20
2022-08-30T17:26:26.301Z,3.15
2022-08-30T17:28:28.661Z,3.40
2022-08-30T17:30:30.435Z,3.13
2022-08-30T17:32:32.530Z,2.60
2022-08-30T17:34:34.132Z,2.60
2022-08-30T17:36:36.902Z,3.00
2022-08-30T17:38:40.029Z,3.10
2022-08-30T17:40:46.987Z,3.20
2022-08-30T17:42:49.075Z,2.95
2022-08-30T17:44:52.211Z,2.60
2022-08-30T17:46:57.339Z,2.95
2022-08-30T17:49:01.428Z,3.08
2022-08-30T17:51:03.978Z,2.60
2022-08-30T17:53:06.237Z,2.70
2022-08-30T17:55:09.179Z,2.88
2022-08-30T17:57:13.154Z,2.70
2022-08-30T17:59:17.112Z,2.67
2022-08-30T18:01:21.073Z,2.75
2022-08-30T18:03:22.839Z,2.53
2022-08-30T18:05:25.607Z,2.53
2022-08-30T18:07:27.527Z,2.65
2022-08-30T18:09:33.693Z,2.85
2022-08-30T18:11:39.495Z,2.63
2022-08-30T18:13:41.183Z,2.55
2022-08-30T18:15:44.112Z,2.78
2022-08-30T18:17:49.112Z,2.72
2022-08-30T18:19:51.594Z,2.80
2022-08-30T18:21:53.868Z,2.47
2022-08-30T18:23:55.708Z,2.40
2022-08-30T18:26:00.417Z,2.97
2022-08-30T18:28:03.608Z,3.03
2022-08-30T18:30:07.523Z,2.85
2022-08-30T18:32:13.456Z,2.80
2022-08-30T18:34:14.996Z,2.28
2022-08-30T18:36:17.057Z,2.65
2022-08-30T18:38:23.567Z,2.30
2022-08-30T18:40:25.594Z,2.60
2022-08-30T18:42:28.143Z,2.85
2022-08-30T18:44:33.563Z,2.60
2022-08-30T18:46:36.138Z,2.60
2022-08-30T18:48:38.515Z,2.55
2022-08-30T18:50:44.019Z,2.60
2022-08-30T18:52:45.712Z,2.50
2022-08-30T18:54:52.410Z,2.28
2022-08-30T18:56:54.875Z,2.53
2022-08-30T18:58:56.620Z,2.33
2022-08-30T19:00:58.273Z,2.70
2022-08-30T19:03:00.055Z,2.70
2022-08-30T19:05:01.850Z,2.40
2022-08-30T19:07:08.032Z,2.30
2022-08-30T19:09:11.140Z,2.60
2022-08-30T19:11:12.931Z,2.60
2022-08-30T19:13:14.837Z,3.00
2022-08-30T19:15:17.213Z,3.83
2022-08-30T19:17:19.978Z,3.92
2022-08-30T19:19:22.080Z,3.28
2022-08-30T19:21:23.773Z,3.67
2022-08-30T19:23:27.824Z,3.40
2022-08-30T19:25:35.595Z,3.55
2022-08-30T19:27:38.383Z,4.75
2022-08-30T19:29:42.212Z,4.57
2022-08-30T19:31:46.559Z,3.78
2022-08-30T19:33:48.367Z,3.80
2022-08-30T19:35:51.461Z,3.55
2022-08-30T19:37:53.228Z,3.40
2022-08-30T19:39:55.052Z,3.17
2022-08-30T19:42:00.114Z,2.90
2022-08-30T19:44:03.457Z,3.20
2022-08-30T19:46:05.163Z,2.40
2022-08-30T19:48:07.063Z,2.70
2022-08-30T19:50:09.237Z,2.70
2022-08-30T19:52:11.106Z,2.80
2022-08-30T19:54:12.757Z,2.67
2022-08-30T19:56:14.384Z,2.47
2022-08-30T19:58:16.827Z,2.50
2022-08-30T20:00:19.227Z,2.50
2022-08-30T20:02:21.194Z,2.53
2022-08-30T20:04:22.773Z,2.67
2022-08-30T20:06:24.485Z,2.17
2022-08-30T20:08:26.373Z,2.20
2022-08-30T20:10:28.165Z,2.67
2022-08-30T20:12:29.877Z,2.30
2022-08-30T20:14:35.127Z,2.63
2022-08-30T20:16:37.840Z,2.33
2022-08-30T20:18:42.680Z,2.72
2022-08-30T20:20:49.817Z,2.40
2022-08-30T20:22:54.394Z,2.50
2022-08-30T20:24:56.459Z,2.60
2022-08-30T20:26:58.257Z,2.22
2022-08-30T20:29:01.888Z,2.50
2022-08-30T20:31:09.593Z,2.33
2022-08-30T20:33:12.648Z,2.33
2022-08-30T20:35:16.987Z,2.00
2022-08-30T20:37:22.658Z,2.50
2022-08-30T20:39:24.841Z,2.17
2022-08-30T20:41:28.931Z,2.42
2022-08-30T20:43:31.501Z,2.47
2022-08-30T20:45:34.088Z,2.72
2022-08-30T20:47:38.070Z,2.67
2022-08-30T20:49:39.978Z,2.50
2022-08-30T20:51:41.850Z,2.40
2022-08-30T20:53:44.580Z,2.40
2022-08-30T20:55:47.336Z,2.38
2022-08-30T20:57:49.154Z,2.78
2022-08-30T20:59:50.946Z,2.55
2022-08-30T21:01:52.422Z,2.58
2022-08-30T21:03:56.723Z,2.50
2022-08-30T21:05:58.736Z,2.67
2022-08-30T21:08:00.357Z,2.40
2022-08-30T21:10:02.470Z,2.55
2022-08-30T21:12:05.047Z,2.53
2022-08-30T21:14:07.593Z,2.90
2022-08-30T21:16:09.289Z,2.22
2022-08-30T21:18:14.809Z,2.70
2022-08-30T21:20:16.978Z,2.40
2022-08-30T21:22:18.621Z,2.38
2022-08-30T21:24:20.793Z,2.33
2022-08-30T21:26:22.649Z,2.60
2022-08-30T21:28:24.419Z,2.67
2022-08-30T21:30:26.560Z,2.30
2022-08-30T21:32:28.354Z,2.72
2022-08-30T21:34:30.029Z,2.70
2022-08-30T21:36:46.903Z,2.83
2022-08-30T21:38:48.758Z,2.75
2022-08-30T21:40:50.614Z,6.97
2022-08-30T21:42:52.258Z,7.30
2022-08-30T21:44:53.891Z,5.45
2022-08-30T21:46:55.706Z,5.15
2022-08-30T21:49:01.162Z,4.97
2022-08-30T21:51:07.656Z,3.85
2022-08-30T21:53:09.986Z,3.67
2022-08-30T21:55:12.076Z,3.60
2022-08-30T21:57:16.167Z,2.95
2022-08-30T21:59:19.435Z,2.95
2022-08-30T22:01:24.350Z,2.60
2022-08-30T22:03:26.007Z,2.80
2022-08-30T22:05:28.096Z,2.80
2022-08-30T22:07:29.588Z,2.72
2022-08-30T22:09:31.357Z,2.70
2022-08-30T22:11:34.333Z,2.70
2022-08-30T22:13:38.511Z,3.17
2022-08-30T22:15:41.707Z,3.10
2022-08-30T22:17:43.781Z,3.13
2022-08-30T22:19:45.397Z,2.63
2022-08-30T22:21:48.095Z,2.75
2022-08-30T22:23:50.541Z,2.80
2022-08-30T22:25:52.624Z,3.03
2022-08-30T22:27:57.691Z,3.00
2022-08-30T22:29:59.308Z,3.05
2022-08-30T22:32:01.221Z,2.92
2022-08-30T22:34:02.978Z,3.08
2022-08-30T22:36:12.692Z,3.20
2022-08-30T22:38:14.720Z,2.78
2022-08-30T22:40:16.562Z,2.90
2022-08-30T22:42:18.241Z,2.90
2022-08-30T22:44:19.740Z,2.97
2022-08-30T22:46:23.213Z,2.50
2022-08-30T22:48:36.717Z,2.75
2022-08-30T22:50:38.590Z,2.60
2022-08-30T22:52:41.048Z,2.95
2022-08-30T22:54:42.899Z,3.00
2022-08-30T22:56:45.365Z,2.83
2022-08-30T22:58:47.950Z,2.85
2022-08-30T23:00:54.605Z,2.45
2022-08-30T23:02:57.166Z,2.90
2022-08-30T23:05:00.193Z,3.00
2022-08-30T23:07:01.819Z,2.83
2022-08-30T23:09:04.736Z,2.83
2022-08-30T23:11:06.439Z,2.90
2022-08-30T23:13:08.094Z,2.47
2022-08-30T23:15:13.046Z,2.90
2022-08-30T23:17:14.608Z,2.58
2022-08-30T23:19:17.038Z,2.67
2022-08-30T23:21:29.717Z,2.80
2022-08-30T23:23:49.958Z,2.83
2022-08-30T23:26:10.076Z,2.95
2022-08-30T23:28:31.154Z,3.10
2022-08-30T23:30:51.301Z,2.92
2022-08-30T23:33:11.596Z,3.10
2022-08-30T23:35:32.374Z,2.83
2022-08-30T23:37:53.366Z,2.97
2022-08-30T23:40:13.780Z,2.67
2022-08-30T23:42:34.021Z,2.72
2022-08-30T23:44:53.866Z,2.70
2022-08-30T23:47:14.067Z,3.03
2022-08-30T23:49:34.498Z,2.72
2022-08-30T23:51:56.122Z,3.00
2022-08-30T23:54:16.553Z,3.08
2022-08-30T23:56:36.478Z,2.75
2022-08-30T23:58:56.955Z,2.90
